Time;durP1;ratioP1;P1;durP2;ratioP2;P2;SDS_P1;SDS_P2;PMS_P1;PMS_P2;Temp;Humidity;BMP_temperature;BMP_pressure;BME280_temperature;BME280_humidity;BME280_pressure;Samples;Min_cycle;Max_cycle;Signal;HPM_P1;HPM_P2
2023/10/09 00:03:23;;;;;;;16.50;5.50;;;15.30;99.90;;;;;;5020316;28;20497;-69
2023/10/09 00:05:55;;;;;;;19.45;6.25;;;15.30;99.90;;;;;;5038203;28;20045;-69
2023/10/09 00:08:30;;;;;;;13.10;5.75;;;15.10;99.90;;;;;;5037195;28;20126;-69
2023/10/09 00:11:13;;;;;;;21.58;6.90;;;15.00;99.90;;;;;;5038679;28;20052;-68
2023/10/09 00:13:49;;;;;;;15.70;6.20;;;14.80;99.90;;;;;;5043805;28;20386;-69
2023/10/09 00:16:34;;;;;;;16.08;6.22;;;14.60;99.90;;;;;;5041900;28;20254;-68
2023/10/09 00:19:30;;;;;;;22.50;5.63;;;14.50;99.90;;;;;;5040932;28;20049;-70
2023/10/09 00:22:04;;;;;;;15.57;6.13;;;14.40;99.90;;;;;;5038009;28;20049;-69
2023/10/09 00:24:41;;;;;;;15.98;4.43;;;14.30;99.90;;;;;;5039255;28;20136;-69
2023/10/09 00:27:19;;;;;;;12.70;5.40;;;14.30;99.90;;;;;;5038686;28;20461;-70
2023/10/09 00:29:54;;;;;;;15.60;5.72;;;14.30;99.90;;;;;;5032178;28;20049;-69
2023/10/09 00:32:26;;;;;;;17.45;4.97;;;14.30;99.90;;;;;;5037138;28;20055;-69
2023/10/09 00:34:59;;;;;;;18.00;6.82;;;14.20;99.90;;;;;;5019710;28;20132;-69
2023/10/09 00:37:34;;;;;;;14.90;5.07;;;14.20;99.90;;;;;;5048910;28;20507;-69
2023/10/09 00:40:19;;;;;;;21.98;5.13;;;14.30;99.90;;;;;;5039260;28;20051;-69
2023/10/09 00:42:55;;;;;;;18.52;5.78;;;14.30;99.90;;;;;;5039570;28;20505;-69
2023/10/09 00:45:28;;;;;;;14.70;5.55;;;14.20;99.90;;;;;;5035880;28;20123;-69
2023/10/09 00:47:58;;;;;;;15.32;5.72;;;14.10;99.90;;;;;;5033690;28;20042;-69
2023/10/09 00:50:35;;;;;;;15.57;6.13;;;14.00;99.90;;;;;;5030086;28;20064;-68
2023/10/09 00:53:18;;;;;;;23.45;7.13;;;14.00;99.90;;;;;;5042667;28;20132;-69
2023/10/09 00:55:46;;;;;;;22.10;7.47;;;13.90;99.90;;;;;;5031302;28;20132;-68
2023/10/09 00:58:23;;;;;;;17.95;5.60;;;13.80;99.90;;;;;;5041322;28;20076;-69
2023/10/09 01:00:55;;;;;;;16.08;6.40;;;13.70;99.90;;;;;;5033484;28;20045;-69
2023/10/09 01:03:28;;;;;;;24.45;7.18;;;13.60;99.90;;;;;;5047459;28;20041;-70
2023/10/09 01:05:57;;;;;;;15.82;6.88;;;13.60;99.90;;;;;;5041062;28;20046;-69
2023/10/09 01:08:43;;;;;;;17.98;6.47;;;13.50;99.90;;;;;;5031912;28;20559;-69
2023/10/09 01:11:29;;;;;;;17.63;6.28;;;13.50;99.90;;;;;;5047284;28;20071;-69
2023/10/09 01:16:34;;;;;;;14.05;5.88;;;13.40;99.90;;;;;;5043453;28;20045;-68
2023/10/09 01:19:12;;;;;;;19.25;7.10;;;13.40;99.90;;;;;;5041515;28;20041;-69
2023/10/09 01:21:45;;;;;;;13.18;5.97;;;13.40;99.90;;;;;;5045541;28;20041;-68
2023/10/09 01:24:19;;;;;;;17.45;6.32;;;13.40;99.90;;;;;;5047649;28;20044;-69
2023/10/09 01:26:54;;;;;;;17.98;6.97;;;13.50;99.90;;;;;;5041256;28;20044;-68
2023/10/09 01:29:22;;;;;;;14.77;5.38;;;13.40;99.90;;;;;;5039836;28;20520;-68
2023/10/09 01:31:56;;;;;;;12.65;6.03;;;13.40;99.90;;;;;;5044292;28;20041;-68
2023/10/09 01:34:24;;;;;;;17.58;6.65;;;13.40;99.90;;;;;;5040886;28;20125;-68
2023/10/09 01:36:59;;;;;;;;;;;13.40;99.90;;;;;;5035701;28;20065;-70
2023/10/09 01:39:39;;;;;;;17.90;5.72;;;13.40;99.90;;;;;;5047742;28;19925;-68
2023/10/09 01:42:06;;;;;;;17.85;5.72;;;13.40;99.90;;;;;;5038699;28;20123;-69
2023/10/09 01:44:42;;;;;;;19.08;7.72;;;13.50;99.90;;;;;;5045616;28;20049;-68
2023/10/09 01:47:18;;;;;;;14.65;6.78;;;13.40;99.90;;;;;;5036465;28;20041;-69
2023/10/09 01:49:52;;;;;;;19.15;5.75;;;13.40;99.90;;;;;;5037807;28;20042;-68
2023/10/09 01:52:24;;;;;;;18.10;5.40;;;13.40;99.90;;;;;;5033566;28;20045;-70
2023/10/09 01:55:02;;;;;;;12.93;5.32;;;13.40;99.90;;;;;;5028385;28;20041;-70
2023/10/09 01:57:34;;;;;;;13.55;5.40;;;13.40;99.90;;;;;;5041534;28;20040;-68
2023/10/09 02:00:07;;;;;;;16.15;6.53;;;13.40;99.90;;;;;;5022225;28;20048;-68
2023/10/09 02:02:44;;;;;;;;;;;13.40;99.90;;;;;;5044738;28;20417;-69
2023/10/09 02:07:44;;;;;;;16.60;5.43;;;13.60;99.90;;;;;;5039229;28;20050;-68
2023/10/09 02:13:09;;;;;;;18.38;5.47;;;14.10;99.90;;;;;;5034606;28;20051;-69
2023/10/09 02:23:51;;;;;;;19.50;4.78;;;14.30;99.90;;;;;;5039486;28;20525;-68
2023/10/09 02:31:44;;;;;;;14.40;4.45;;;14.50;99.90;;;;;;5042266;28;20045;-69
2023/10/09 02:34:16;;;;;;;14.13;4.10;;;14.60;99.90;;;;;;5046164;28;20041;-70
2023/10/09 02:36:57;;;;;;;17.38;4.47;;;14.60;99.90;;;;;;5034393;28;20053;-68
2023/10/09 02:39:27;;;;;;;16.80;5.55;;;14.60;99.90;;;;;;5042317;28;20132;-69
2023/10/09 02:42:15;;;;;;;22.55;5.35;;;14.60;99.90;;;;;;5042478;28;20037;-69
2023/10/09 02:44:49;;;;;;;16.27;3.70;;;14.80;99.90;;;;;;5028592;28;20052;-70
2023/10/09 02:47:29;;;;;;;12.80;3.70;;;15.20;99.90;;;;;;5034718;28;20045;-70
2023/10/09 02:50:07;;;;;;;23.58;4.78;;;15.30;99.90;;;;;;5045460;28;20147;-69
2023/10/09 02:52:41;;;;;;;15.15;5.85;;;15.50;99.90;;;;;;5038073;28;20420;-70
2023/10/09 02:55:23;;;;;;;15.90;5.13;;;15.60;99.90;;;;;;5044425;28;20405;-69
2023/10/09 02:58:14;;;;;;;17.23;5.82;;;15.50;99.90;;;;;;5040427;28;20528;-70
2023/10/09 03:00:46;;;;;;;17.27;5.78;;;15.30;99.90;;;;;;5055042;28;20041;-69
2023/10/09 03:03:20;;;;;;;17.20;5.78;;;14.90;99.90;;;;;;5039912;28;20044;-68
2023/10/09 03:05:52;;;;;;;12.70;4.93;;;14.60;99.90;;;;;;5039342;28;20048;-70
2023/10/09 03:08:19;;;;;;;12.27;5.15;;;14.40;99.90;;;;;;5036839;28;20488;-70
2023/10/09 03:10:51;;;;;;;15.38;6.82;;;14.20;99.90;;;;;;5027732;28;20041;-69
2023/10/09 03:13:23;;;;;;;18.55;5.22;;;14.10;99.90;;;;;;5036391;28;20060;-69
2023/10/09 03:15:55;;;;;;;18.40;5.60;;;14.00;99.90;;;;;;5038172;28;20049;-68
2023/10/09 03:18:22;;;;;;;22.45;7.22;;;14.10;99.90;;;;;;5048380;28;20033;-66
2023/10/09 03:20:54;;;;;;;19.40;5.68;;;14.10;99.90;;;;;;5036647;28;20037;-69
2023/10/09 03:23:27;;;;;;;20.45;4.75;;;14.20;99.90;;;;;;5036688;28;20046;-69
2023/10/09 03:26:01;;;;;;;26.15;4.72;;;14.30;99.90;;;;;;5045084;28;20056;-69
2023/10/09 03:28:33;;;;;;;16.00;5.30;;;14.30;99.90;;;;;;5048333;28;20081;-71
2023/10/09 03:31:02;;;;;;;15.50;4.82;;;14.40;99.90;;;;;;5040938;28;20040;-70
2023/10/09 03:33:35;;;;;;;17.38;4.93;;;14.40;99.90;;;;;;5037603;28;20045;-69
2023/10/09 03:36:11;;;;;;;17.23;3.85;;;14.30;99.90;;;;;;5037751;28;20420;-68
2023/10/09 03:38:44;;;;;;;20.52;5.63;;;14.30;99.90;;;;;;5039752;28;20029;-69
2023/10/09 03:41:18;;;;;;;16.73;4.22;;;14.70;99.90;;;;;;5037843;28;20026;-68
2023/10/09 03:43:50;;;;;;;16.58;5.28;;;15.10;99.90;;;;;;5037844;28;20044;-67
2023/10/09 03:46:26;;;;;;;19.08;3.60;;;15.30;99.90;;;;;;5033092;28;20128;-69
2023/10/09 03:49:00;;;;;;;16.20;4.78;;;15.50;99.90;;;;;;5041711;28;20072;-71
2023/10/09 03:51:32;;;;;;;20.83;4.65;;;15.70;99.90;;;;;;5041106;28;20059;-70
2023/10/09 03:54:03;;;;;;;23.38;7.38;;;15.70;99.90;;;;;;5036420;28;20043;-70
2023/10/09 03:56:35;;;;;;;14.38;4.40;;;15.70;99.90;;;;;;5026622;28;20049;-68
2023/10/09 03:59:10;;;;;;;18.58;5.93;;;15.60;99.90;;;;;;5042545;28;20473;-69
2023/10/09 04:01:40;;;;;;;16.05;6.28;;;15.30;99.90;;;;;;5035289;28;20037;-68
2023/10/09 04:04:14;;;;;;;17.23;6.00;;;15.10;99.90;;;;;;5040024;28;20041;-70
2023/10/09 04:06:46;;;;;;;18.70;4.95;;;14.90;99.90;;;;;;5038657;28;20049;-68
2023/10/09 04:15:00;;;;;;;18.50;4.90;;;14.40;99.90;;;;;;5040009;28;20069;-71
2023/10/09 04:17:33;;;;;;;11.38;5.07;;;14.30;99.90;;;;;;5038057;28;20045;-70
2023/10/09 04:22:59;;;;;;;14.05;5.03;;;14.00;99.90;;;;;;5037808;28;20519;-70
2023/10/09 04:25:45;;;;;;;18.27;4.47;;;13.90;99.90;;;;;;5029284;28;20139;-69
2023/10/09 04:30:53;;;;;;;17.48;5.35;;;13.80;99.90;;;;;;5041320;28;20069;-69
2023/10/09 04:33:28;;;;;;;14.88;4.90;;;13.70;99.90;;;;;;5040215;28;20474;-68
2023/10/09 04:36:22;;;;;;;21.30;4.95;;;13.70;99.90;;;;;;5033644;28;20045;-69
2023/10/09 04:41:52;;;;;;;13.10;4.13;;;13.60;99.90;;;;;;5037991;28;20037;-68
2023/10/09 04:44:22;;;;;;;15.68;4.53;;;13.60;99.90;;;;;;5040349;28;20037;-68
2023/10/09 04:50:02;;;;;;;14.00;4.18;;;13.60;99.90;;;;;;5038259;28;20104;-70
2023/10/09 05:05:58;;;;;;;16.25;5.57;;;13.60;99.90;;;;;;5036082;28;20120;-69
2023/10/09 05:08:32;;;;;;;12.38;3.47;;;13.50;99.90;;;;;;5034529;28;20047;-68
2023/10/09 05:16:25;;;;;;;10.80;3.30;;;13.40;99.90;;;;;;5037121;28;20042;-69
2023/10/09 05:18:56;;;;;;;16.50;4.95;;;13.40;99.90;;;;;;5031088;28;20041;-70
2023/10/09 05:37:32;;;;;;;18.45;4.25;;;13.30;99.90;;;;;;5034649;28;20042;-70
2023/10/09 05:47:54;;;;;;;14.15;3.80;;;14.10;99.90;;;;;;5039475;28;20041;-70
2023/10/09 06:04:12;;;;;;;14.55;2.80;;;15.50;99.90;;;;;;5037075;28;20045;-70
2023/10/09 06:06:45;;;;;;;10.32;3.42;;;15.70;99.90;;;;;;5037478;28;20612;-68
2023/10/09 06:11:55;;;;;;;16.20;4.82;;;15.90;99.90;;;;;;5035710;28;20049;-69
2023/10/09 06:17:00;;;;;;;19.98;4.47;;;16.10;99.90;;;;;;5035044;28;20067;-69
2023/10/09 06:19:28;;;;;;;11.95;4.45;;;16.10;99.90;;;;;;5040603;28;20120;-69
2023/10/09 06:34:51;;;;;;;15.65;3.90;;;16.60;99.90;;;;;;5038512;28;20037;-68
2023/10/09 06:45:16;;;;;;;18.48;4.38;;;16.80;99.90;;;;;;5037289;28;20849;-70
2023/10/09 06:47:55;;;;;;;16.52;4.35;;;16.90;99.90;;;;;;5051177;28;20056;-69
2023/10/09 06:50:55;;;;;;;15.93;4.00;;;17.00;99.90;;;;;;5033629;28;20064;-68
2023/10/09 06:53:19;;;;;;;12.43;4.07;;;17.10;99.90;;;;;;5034430;28;20526;-70
2023/10/09 06:55:51;;;;;;;12.93;2.90;;;17.20;99.90;;;;;;5043467;28;20041;-70
2023/10/09 06:58:25;;;;;;;14.52;3.65;;;17.30;99.90;;;;;;5037444;28;20132;-68
2023/10/09 07:03:53;;;;;;;18.17;4.80;;;17.40;99.90;;;;;;5038142;28;20065;-67
2023/10/09 07:06:24;;;;;;;15.43;3.85;;;17.40;99.90;;;;;;5038997;28;20064;-68
2023/10/09 07:09:15;;;;;;;11.27;3.25;;;17.50;99.90;;;;;;5040689;28;20584;-70
2023/10/09 07:33:16;;;;;;;16.00;3.78;;;18.10;99.90;;;;;;5038721;28;20119;-69
2023/10/09 07:38:28;;;;;;;13.68;3.53;;;18.10;99.90;;;;;;5038227;28;20037;-68
2023/10/09 07:41:33;;;;;;;23.23;4.70;;;18.10;99.90;;;;;;5037388;28;20117;-69
2023/10/09 07:43:51;;;;;;;11.05;3.35;;;18.10;99.90;;;;;;5037542;28;20049;-69
2023/10/09 07:46:30;;;;;;;11.57;3.17;;;18.00;99.90;;;;;;5031978;28;20052;-68
2023/10/09 07:49:09;;;;;;;16.65;3.63;;;18.00;99.90;;;;;;5038838;28;20041;-68
2023/10/09 07:51:47;;;;;;;15.10;3.35;;;18.00;99.90;;;;;;5030923;28;20060;-68
2023/10/09 07:54:32;;;;;;;13.95;3.95;;;18.10;99.90;;;;;;5035080;28;20262;-69
2023/10/09 07:57:08;;;;;;;15.38;4.50;;;18.10;99.90;;;;;;5034172;28;20037;-68
2023/10/09 07:59:49;;;;;;;15.52;3.38;;;18.10;99.90;;;;;;5036853;28;20068;-68
2023/10/09 08:02:31;;;;;;;20.83;4.68;;;18.10;99.90;;;;;;5033238;28;20041;-69
2023/10/09 08:05:18;;;;;;;9.98;2.63;;;18.10;99.90;;;;;;5036659;28;20061;-69
2023/10/09 08:07:57;;;;;;;13.30;3.47;;;18.20;99.90;;;;;;5024915;28;20131;-69
2023/10/09 08:12:58;;;;;;;18.02;4.07;;;18.20;99.90;;;;;;5039670;28;20033;-67
2023/10/09 08:15:51;;;;;;;15.60;3.70;;;18.20;99.90;;;;;;5035828;28;20509;-68
2023/10/09 08:18:31;;;;;;;18.42;3.50;;;18.20;99.90;;;;;;5032925;28;20042;-68
2023/10/09 08:23:50;;;;;;;11.48;3.72;;;18.20;99.90;;;;;;5033555;28;20045;-68
2023/10/09 08:26:47;;;;;;;14.77;4.07;;;18.20;99.90;;;;;;5036580;28;20037;-68
2023/10/09 08:29:20;;;;;;;16.45;3.90;;;18.20;99.90;;;;;;5037892;28;20821;-70
2023/10/09 08:31:56;;;;;;;19.02;3.95;;;18.20;99.90;;;;;;5038234;28;20038;-69
2023/10/09 08:34:24;;;;;;;18.98;4.18;;;18.30;99.90;;;;;;5040919;28;20573;-69
2023/10/09 08:36:56;;;;;;;21.55;5.22;;;18.20;99.90;;;;;;5035223;28;20037;-67
2023/10/09 08:39:33;;;;;;;12.43;4.05;;;18.20;99.90;;;;;;5040344;28;20045;-68
2023/10/09 08:42:08;;;;;;;11.65;3.88;;;18.20;99.90;;;;;;5034927;28;20041;-68
2023/10/09 08:44:44;;;;;;;16.55;4.20;;;18.30;99.90;;;;;;5032969;28;20056;-68
2023/10/09 08:47:16;;;;;;;14.55;3.95;;;18.30;99.90;;;;;;5022905;28;20052;-70
2023/10/09 08:49:48;;;;;;;12.45;3.80;;;18.30;99.90;;;;;;5033195;28;20041;-67
2023/10/09 08:52:20;;;;;;;16.38;3.33;;;18.40;99.90;;;;;;5040462;28;20047;-67
2023/10/09 08:54:53;;;;;;;12.23;3.97;;;18.40;99.90;;;;;;5036852;28;20552;-69
2023/10/09 08:57:27;;;;;;;15.13;3.28;;;18.50;99.90;;;;;;5032045;28;20047;-69
2023/10/09 08:59:58;;;;;;;22.42;4.53;;;18.50;99.90;;;;;;5038012;28;20041;-68
2023/10/09 09:02:31;;;;;;;13.82;3.63;;;18.60;99.90;;;;;;5022176;28;20041;-68
2023/10/09 09:05:20;;;;;;;18.77;4.60;;;18.60;99.90;;;;;;5028548;28;20402;-68
2023/10/09 09:07:56;;;;;;;14.52;3.90;;;18.70;99.90;;;;;;5037019;28;20049;-70
2023/10/09 09:10:35;;;;;;;17.23;4.55;;;18.70;99.90;;;;;;5035361;28;20061;-67
2023/10/09 09:13:06;;;;;;;21.00;3.63;;;18.80;99.90;;;;;;5049914;28;20053;-69
2023/10/09 09:15:40;;;;;;;14.30;4.82;;;18.90;99.90;;;;;;5036942;28;20048;-67
2023/10/09 09:18:17;;;;;;;17.33;3.47;;;19.00;99.90;;;;;;5026244;28;20107;-70
2023/10/09 09:20:53;;;;;;;14.98;4.93;;;19.10;99.90;;;;;;5033513;28;20037;-70
2023/10/09 09:23:23;;;;;;;14.25;4.38;;;19.20;99.90;;;;;;5039540;28;20061;-68
2023/10/09 09:26:01;;;;;;;17.83;3.40;;;19.20;99.90;;;;;;5036407;28;20662;-69
2023/10/09 09:28:38;;;;;;;13.93;3.63;;;19.30;99.90;;;;;;5038324;28;20057;-67
2023/10/09 09:31:13;;;;;;;13.30;3.78;;;19.30;99.90;;;;;;5034661;28;20091;-69
2023/10/09 09:33:52;;;;;;;14.75;3.60;;;19.40;99.90;;;;;;5044288;28;20182;-67
2023/10/09 09:36:28;;;;;;;14.07;3.95;;;19.50;99.90;;;;;;5043379;28;20508;-69
2023/10/09 09:39:01;;;;;;;15.20;3.55;;;19.50;99.90;;;;;;5043682;28;20047;-69
2023/10/09 09:41:34;;;;;;;18.20;4.32;;;19.50;99.90;;;;;;5037909;28;20119;-68
2023/10/09 09:44:01;;;;;;;15.90;3.70;;;19.60;99.90;;;;;;5036260;28;20048;-69
2023/10/09 09:46:34;;;;;;;16.65;3.58;;;19.60;99.90;;;;;;5035902;28;20060;-68
2023/10/09 09:49:03;;;;;;;20.02;3.67;;;19.60;99.90;;;;;;5035071;28;20076;-69
2023/10/09 09:51:35;;;;;;;14.07;3.67;;;19.60;99.90;;;;;;5040057;28;20064;-67
2023/10/09 09:54:09;;;;;;;18.40;3.65;;;19.70;99.90;;;;;;5039757;28;20048;-69
2023/10/09 09:56:40;;;;;;;19.33;3.60;;;19.70;99.90;;;;;;5037060;28;20076;-69
2023/10/09 09:59:21;;;;;;;14.20;4.40;;;19.70;99.90;;;;;;5036796;28;20044;-67
2023/10/09 10:01:57;;;;;;;12.75;3.80;;;19.80;99.90;;;;;;5042007;28;20041;-68
2023/10/09 10:04:35;;;;;;;17.00;3.97;;;19.80;99.90;;;;;;5046804;28;20452;-69
2023/10/09 10:07:12;;;;;;;13.82;3.67;;;19.80;99.90;;;;;;5036898;28;20041;-69
2023/10/09 10:09:45;;;;;;;14.02;3.72;;;19.90;99.90;;;;;;5038298;28;20045;-69
2023/10/09 10:13:00;;;;;;;11.75;3.20;;;19.90;99.90;;;;;;5038812;28;20125;-68
2023/10/09 10:16:11;;;;;;;19.88;3.78;;;20.00;99.90;;;;;;5040835;28;20041;-68
2023/10/09 10:18:59;;;;;;;13.52;3.22;;;20.10;99.90;;;;;;5037335;28;20045;-68
2023/10/09 10:24:06;;;;;;;14.68;3.08;;;20.30;99.90;;;;;;5038633;28;20041;-67
2023/10/09 10:26:39;;;;;;;14.02;3.03;;;20.30;99.90;;;;;;5039316;28;20042;-68
2023/10/09 10:29:33;;;;;;;13.07;2.85;;;20.40;99.90;;;;;;5025447;28;20045;-68
2023/10/09 10:32:08;;;;;;;;;;;20.40;99.90;;;;;;5035884;28;20045;-69
2023/10/09 10:34:57;;;;;;;15.90;3.42;;;20.50;99.90;;;;;;5037021;28;20324;-69
2023/10/09 10:37:38;;;;;;;;;;;20.50;99.90;;;;;;5040411;28;20049;-67
2023/10/09 10:40:38;;;;;;;15.70;3.83;;;20.50;99.90;;;;;;5044259;28;20011;-67
2023/10/09 10:43:47;;;;;;;14.23;4.82;;;20.50;99.90;;;;;;5026795;28;20041;-69
2023/10/09 10:49:01;;;;;;;18.35;4.22;;;20.60;99.90;;;;;;5036802;28;20053;-67
2023/10/09 10:51:37;;;;;;;12.43;3.28;;;20.60;99.90;;;;;;5036258;28;20413;-68
2023/10/09 10:54:45;;;;;;;17.88;4.15;;;20.70;99.90;;;;;;5033388;28;20387;-69
2023/10/09 10:57:28;;;;;;;13.23;4.05;;;20.80;99.90;;;;;;5034538;28;20383;-69
2023/10/09 11:00:12;;;;;;;12.35;2.92;;;20.80;99.90;;;;;;5027536;28;20048;-67
2023/10/09 11:02:47;;;;;;;13.68;3.88;;;20.90;99.90;;;;;;5038700;28;20115;-69
2023/10/09 11:05:24;;;;;;;13.65;3.70;;;20.90;99.90;;;;;;5045310;28;20055;-69
2023/10/09 11:07:57;;;;;;;22.00;4.63;;;20.90;99.90;;;;;;5040599;28;20037;-70
2023/10/09 11:10:28;;;;;;;17.13;4.00;;;20.90;99.90;;;;;;5041171;28;20417;-70
2023/10/09 11:13:30;;;;;;;16.20;3.67;;;20.90;99.90;;;;;;5041242;28;20119;-69
2023/10/09 11:15:56;;;;;;;14.02;3.45;;;20.90;99.90;;;;;;5037313;28;20048;-67
2023/10/09 11:18:27;;;;;;;12.52;5.05;;;20.90;99.90;;;;;;5037227;28;20505;-68
2023/10/09 11:26:21;;;;;;;17.90;4.15;;;20.90;99.90;;;;;;5038272;28;20043;-69
2023/10/09 11:29:23;;;;;;;16.17;3.92;;;20.90;99.90;;;;;;5031141;28;20059;-69
2023/10/09 11:32:05;;;;;;;15.27;3.58;;;20.80;99.90;;;;;;5047033;28;20106;-67
2023/10/09 11:34:37;;;;;;;16.23;3.80;;;20.70;99.90;;;;;;5035220;28;20052;-69
2023/10/09 11:37:10;;;;;;;15.43;3.85;;;20.70;99.90;;;;;;5038458;28;20041;-67
2023/10/09 11:40:00;;;;;;;11.80;5.03;;;20.70;99.90;;;;;;5018808;28;20048;-67
2023/10/09 11:42:38;;;;;;;15.60;4.55;;;20.60;99.90;;;;;;5036194;28;20517;-69
2023/10/09 11:45:28;;;;;;;15.40;3.42;;;20.60;99.90;;;;;;5040336;28;20045;-69
2023/10/09 11:48:27;;;;;;;13.25;3.78;;;20.60;99.90;;;;;;5038139;28;20562;-69
2023/10/09 11:53:43;;;;;;;13.77;4.32;;;20.60;99.90;;;;;;5039200;28;20426;-70
2023/10/09 11:56:19;;;;;;;14.15;3.70;;;20.60;99.90;;;;;;5040997;28;20060;-68
2023/10/09 11:58:51;;;;;;;15.20;4.32;;;20.60;99.90;;;;;;5034038;28;20033;-69
2023/10/09 12:01:23;;;;;;;11.32;3.97;;;20.70;99.90;;;;;;5036642;28;20048;-67
2023/10/09 12:03:55;;;;;;;13.82;5.15;;;20.70;99.90;;;;;;5038903;28;20049;-69
2023/10/09 12:06:32;;;;;;;12.88;4.80;;;20.70;99.90;;;;;;5035315;28;20041;-66
2023/10/09 12:08:59;;;;;;;16.30;3.75;;;20.70;99.90;;;;;;5036442;28;20514;-69
2023/10/09 12:11:28;;;;;;;18.15;4.88;;;20.70;99.90;;;;;;5039972;28;20048;-69
2023/10/09 12:14:01;;;;;;;18.42;4.82;;;20.60;99.90;;;;;;5040595;28;20052;-68
2023/10/09 12:16:28;;;;;;;14.07;3.55;;;20.60;99.90;;;;;;5036313;28;20072;-68
2023/10/09 12:18:55;;;;;;;12.57;3.85;;;20.60;99.90;;;;;;5036287;28;20041;-68
2023/10/09 12:21:23;;;;;;;12.70;3.90;;;20.50;99.90;;;;;;5040359;28;20119;-68
2023/10/09 12:23:58;;;;;;;15.93;3.72;;;20.50;99.90;;;;;;5026492;28;20052;-68
2023/10/09 12:26:34;;;;;;;16.95;4.82;;;20.50;99.90;;;;;;5035760;28;20151;-69
2023/10/09 12:29:10;;;;;;;18.63;3.78;;;20.50;99.90;;;;;;5031918;28;20049;-69
2023/10/09 12:31:45;;;;;;;12.23;3.78;;;20.60;99.90;;;;;;5038430;28;20034;-69
2023/10/09 12:34:16;;;;;;;13.32;3.35;;;20.50;99.90;;;;;;5038778;28;20075;-68
2023/10/09 12:36:49;;;;;;;8.65;3.50;;;20.50;99.90;;;;;;5037630;28;20073;-68
2023/10/09 12:39:22;;;;;;;19.45;4.78;;;20.50;99.90;;;;;;5040849;28;20044;-67
2023/10/09 12:41:53;;;;;;;17.38;4.28;;;20.50;99.90;;;;;;5037756;28;20045;-69
2023/10/09 12:44:27;;;;;;;11.23;4.45;;;20.50;99.90;;;;;;5032053;28;20046;-68
2023/10/09 12:46:54;;;;;;;11.32;3.70;;;20.50;99.90;;;;;;5034342;28;20413;-68
2023/10/09 12:49:25;;;;;;;15.05;3.95;;;20.50;99.90;;;;;;5039899;28;20536;-67
2023/10/09 12:51:58;;;;;;;16.00;4.28;;;20.50;99.90;;;;;;5027722;28;20049;-68
2023/10/09 12:54:31;;;;;;;16.15;4.00;;;20.50;99.90;;;;;;5037683;28;20045;-68
2023/10/09 12:57:03;;;;;;;14.55;4.53;;;20.50;99.90;;;;;;5035690;28;20051;-69
2023/10/09 12:59:35;;;;;;;13.13;4.32;;;20.40;99.90;;;;;;5039542;28;20502;-68
2023/10/09 13:02:10;;;;;;;14.47;3.77;;;20.40;99.90;;;;;;5043965;28;20511;-69
2023/10/09 13:04:42;;;;;;;16.35;4.45;;;20.40;99.90;;;;;;5036489;28;20106;-68
2023/10/09 13:07:09;;;;;;;13.15;3.42;;;20.30;99.90;;;;;;5023752;28;20056;-68
2023/10/09 13:09:44;;;;;;;17.23;3.78;;;20.30;99.90;;;;;;5042263;28;20054;-69
2023/10/09 13:12:17;;;;;;;12.45;4.43;;;20.20;99.90;;;;;;5038595;28;20076;-69
2023/10/09 13:14:49;;;;;;;16.38;4.03;;;20.20;99.90;;;;;;5038446;28;20033;-69
2023/10/09 13:17:16;;;;;;;11.20;3.80;;;20.10;99.90;;;;;;5040099;28;20047;-69
2023/10/09 13:19:48;;;;;;;17.13;4.68;;;20.00;99.90;;;;;;5042756;28;20034;-69
2023/10/09 13:22:22;;;;;;;16.25;3.90;;;20.00;99.90;;;;;;5040419;28;20053;-69
2023/10/09 13:25:03;;;;;;;11.40;4.90;;;19.80;99.90;;;;;;5046336;28;20143;-68
2023/10/09 13:27:35;;;;;;;20.70;4.68;;;19.70;99.90;;;;;;5043729;28;20045;-68
2023/10/09 13:30:09;;;;;;;13.85;3.97;;;19.50;99.90;;;;;;5048057;28;20048;-68
2023/10/09 13:32:40;;;;;;;16.05;4.70;;;19.40;99.90;;;;;;5027293;28;20118;-67
2023/10/09 13:35:14;;;;;;;15.73;5.20;;;19.30;99.90;;;;;;5043038;28;20049;-69
2023/10/09 13:37:41;;;;;;;15.82;4.63;;;19.30;99.90;;;;;;5042778;28;20533;-68
2023/10/09 13:40:09;;;;;;;13.75;3.50;;;19.20;99.90;;;;;;5038822;28;20528;-69
2023/10/09 13:42:42;;;;;;;18.83;4.80;;;19.20;99.90;;;;;;5041361;28;20084;-69
2023/10/09 13:45:15;;;;;;;13.68;3.58;;;19.20;99.90;;;;;;5041302;28;20045;-69
2023/10/09 13:47:48;;;;;;;18.00;4.13;;;19.20;99.90;;;;;;5038379;28;20041;-70
2023/10/09 13:50:21;;;;;;;11.88;3.55;;;19.30;99.90;;;;;;5041866;28;20039;-68
2023/10/09 13:52:54;;;;;;;19.90;6.53;;;19.40;99.90;;;;;;5042239;28;20129;-68
2023/10/09 13:55:21;;;;;;;12.45;4.10;;;19.40;99.90;;;;;;5038659;28;20039;-67
2023/10/09 13:57:48;;;;;;;16.63;4.15;;;19.50;99.90;;;;;;5043276;28;20047;-67
2023/10/09 14:00:33;;;;;;;16.98;4.70;;;19.50;99.90;;;;;;5038563;28;20044;-68
2023/10/09 14:03:11;;;;;;;12.93;4.43;;;19.50;99.90;;;;;;5048381;28;20048;-67
2023/10/09 14:05:44;;;;;;;;;;;19.50;99.90;;;;;;5049164;28;20132;-69
2023/10/09 14:08:15;;;;;;;17.80;4.63;;;19.60;99.90;;;;;;5042388;28;20304;-67
2023/10/09 14:10:48;;;;;;;18.40;4.32;;;19.60;99.90;;;;;;5040817;28;20046;-69
2023/10/09 14:13:28;;;;;;;15.85;4.40;;;19.60;99.90;;;;;;5041847;28;20037;-68
2023/10/09 14:16:02;;;;;;;16.17;3.95;;;19.70;99.90;;;;;;5040412;28;20040;-66
2023/10/09 14:18:29;;;;;;;12.68;3.63;;;19.70;99.90;;;;;;5041067;28;20120;-68
2023/10/09 14:21:09;;;;;;;12.60;3.20;;;19.80;99.90;;;;;;5036594;28;20033;-68
2023/10/09 14:23:36;;;;;;;17.77;3.97;;;19.80;99.90;;;;;;5038671;28;21055;-67
2023/10/09 14:26:08;;;;;;;14.32;4.03;;;19.80;99.90;;;;;;5042540;28;20045;-69
2023/10/09 14:28:42;;;;;;;17.15;4.35;;;19.80;99.90;;;;;;5029066;28;20068;-67
2023/10/09 14:31:11;;;;;;;15.90;3.70;;;19.80;99.90;;;;;;5037416;28;20131;-69
2023/10/09 14:33:51;;;;;;;14.52;4.38;;;19.90;99.90;;;;;;5036636;28;20052;-68
2023/10/09 14:36:25;;;;;;;15.55;3.92;;;19.90;99.90;;;;;;5033762;28;20064;-69
2023/10/09 14:38:57;;;;;;;17.48;3.80;;;19.90;99.90;;;;;;5039013;28;20049;-69
2023/10/09 14:41:33;;;;;;;12.48;4.07;;;19.90;99.90;;;;;;5029043;28;20112;-69
2023/10/09 14:44:00;;;;;;;16.05;4.28;;;20.00;99.90;;;;;;5034247;28;20169;-67
2023/10/09 14:46:28;;;;;;;14.50;3.92;;;20.00;99.90;;;;;;5046400;28;20497;-67
2023/10/09 14:48:55;;;;;;;11.35;4.07;;;20.00;99.90;;;;;;5040036;28;20049;-69
2023/10/09 14:51:27;;;;;;;11.73;4.00;;;20.00;99.90;;;;;;5039005;28;20049;-67
2023/10/09 14:54:01;;;;;;;15.98;4.43;;;20.10;99.90;;;;;;5036460;28;20052;-68
2023/10/09 14:56:29;;;;;;;20.13;4.03;;;20.00;99.90;;;;;;5037307;28;20052;-69
2023/10/09 14:59:00;;;;;;;16.93;4.67;;;20.00;99.90;;;;;;5037373;28;20052;-69
2023/10/09 15:01:32;;;;;;;13.88;4.30;;;20.00;99.90;;;;;;5039915;28;20118;-69
2023/10/09 15:04:04;;;;;;;9.88;3.35;;;20.00;99.90;;;;;;5020531;28;20112;-70
2023/10/09 15:06:38;;;;;;;15.60;4.60;;;20.00;99.90;;;;;;5044167;28;20063;-70
2023/10/09 15:09:21;;;;;;;13.55;4.65;;;20.00;99.90;;;;;;5034898;28;20044;-68
2023/10/09 15:11:49;;;;;;;16.27;3.92;;;19.90;99.90;;;;;;5042521;28;20132;-68
2023/10/09 15:14:21;;;;;;;17.15;5.05;;;19.90;99.90;;;;;;5033644;28;20056;-69
2023/10/09 15:16:53;;;;;;;15.55;3.80;;;19.90;99.90;;;;;;5028592;28;20063;-67
2023/10/09 15:19:29;;;;;;;13.63;3.70;;;19.90;99.90;;;;;;5037416;28;20038;-69
2023/10/09 15:22:01;;;;;;;10.73;3.78;;;19.80;99.90;;;;;;5039213;28;20056;-68
2023/10/09 15:24:33;;;;;;;14.93;4.47;;;19.80;99.90;;;;;;5027991;28;20041;-68
2023/10/09 15:27:05;;;;;;;15.70;3.80;;;19.80;99.90;;;;;;5021112;28;20043;-68
2023/10/09 15:29:33;;;;;;;17.45;3.88;;;19.70;99.90;;;;;;5037832;28;20128;-68
2023/10/09 15:32:05;;;;;;;18.73;4.45;;;19.70;99.90;;;;;;5036908;28;20064;-68
2023/10/09 15:34:37;;;;;;;16.23;4.75;;;19.70;99.90;;;;;;5038955;28;20073;-67
2023/10/09 15:37:09;;;;;;;19.50;4.10;;;19.60;99.90;;;;;;5036143;28;20409;-68
2023/10/09 15:39:42;;;;;;;12.63;3.72;;;19.60;99.90;;;;;;5036828;28;20045;-70
2023/10/09 15:42:13;;;;;;;15.15;3.97;;;19.60;99.90;;;;;;5036455;28;20568;-67
2023/10/09 15:44:47;;;;;;;14.80;3.75;;;19.60;99.90;;;;;;5021562;28;20531;-70
2023/10/09 15:47:21;;;;;;;14.02;4.20;;;19.50;99.90;;;;;;5036002;28;20045;-70
2023/10/09 15:49:49;;;;;;;20.08;4.30;;;19.50;99.90;;;;;;5031683;28;20041;-70
2023/10/09 15:52:26;;;;;;;17.73;3.60;;;19.50;99.90;;;;;;5036093;28;20048;-69
2023/10/09 15:54:58;;;;;;;17.52;4.63;;;19.40;99.90;;;;;;5042772;28;20049;-69
2023/10/09 15:57:30;;;;;;;12.60;3.72;;;19.40;99.90;;;;;;5038991;28;20052;-68
2023/10/09 16:00:13;;;;;;;17.35;6.25;;;19.40;99.90;;;;;;5040913;28;20059;-69
2023/10/09 16:02:41;;;;;;;14.15;3.72;;;19.50;99.90;;;;;;5035914;28;20144;-70
2023/10/09 16:05:16;;;;;;;22.00;3.80;;;19.40;99.90;;;;;;5043697;28;20041;-68
2023/10/09 16:07:43;;;;;;;16.02;5.05;;;19.50;99.90;;;;;;5034461;28;20163;-68